createdAt,value
2022-12-19T00:00:14.744Z,101575.88
2022-12-19T00:01:19.543Z,101570.69
2022-12-19T00:02:25.429Z,101572.19
2022-12-19T00:03:27.282Z,101572.97
2022-12-19T00:04:30.285Z,101569.88
2022-12-19T00:05:35.831Z,101569.56
2022-12-19T00:06:41.342Z,101577.91
2022-12-19T00:07:48.410Z,101567.16
2022-12-19T00:08:52.648Z,101567.97
2022-12-19T00:09:54.223Z,101562.78
2022-12-19T00:10:59.448Z,101556.81
2022-12-19T00:12:02.449Z,101560.16
2022-12-19T00:13:05.040Z,101560.84
2022-12-19T00:14:07.683Z,101559.81
2022-12-19T00:15:10.770Z,101569.81
2022-12-19T00:16:14.337Z,101565.41
2022-12-19T00:17:18.887Z,101561.63
2022-12-19T00:18:20.611Z,101564.66
2022-12-19T00:19:24.749Z,101560.69
2022-12-19T00:20:26.383Z,101569.13
2022-12-19T00:21:30.740Z,101560.50
2022-12-19T00:22:32.915Z,101557.44
2022-12-19T00:23:36.135Z,101559.25
2022-12-19T00:24:37.954Z,101554.84
2022-12-19T00:25:40.527Z,101548.09
2022-12-19T00:26:43.153Z,101542.91
2022-12-19T00:27:47.233Z,101541.44
2022-12-19T00:28:50.860Z,101544.25
2022-12-19T00:29:53.428Z,101544.72
2022-12-19T00:30:55.630Z,101540.31
2022-12-19T00:31:59.203Z,101526.09
2022-12-19T00:33:02.616Z,101532.31
2022-12-19T00:34:05.477Z,101529.16
2022-12-19T00:35:07.504Z,101528.75
2022-12-19T00:36:14.457Z,101520.00
2022-12-19T00:37:18.512Z,101534.13
2022-12-19T00:38:21.104Z,101523.56
2022-12-19T00:39:22.924Z,101523.72
2022-12-19T00:40:25.456Z,101527.81
2022-12-19T00:41:30.415Z,101521.91
2022-12-19T00:42:33.121Z,101515.47
2022-12-19T00:43:36.519Z,101512.88
2022-12-19T00:44:39.128Z,101516.19
2022-12-19T00:45:40.833Z,101518.81
2022-12-19T00:46:51.035Z,101521.25
2022-12-19T00:47:54.843Z,101531.00
2022-12-19T00:48:57.405Z,101531.59
2022-12-19T00:49:59.016Z,101537.38
2022-12-19T00:51:02.219Z,101539.72
2022-12-19T00:52:04.364Z,101535.41
2022-12-19T00:53:06.908Z,101540.00
2022-12-19T00:54:09.890Z,101546.53
2022-12-19T00:55:18.783Z,101538.94
2022-12-19T00:56:22.658Z,101534.38
2022-12-19T00:57:25.224Z,101540.84
2022-12-19T00:58:27.131Z,101544.56
2022-12-19T00:59:31.251Z,101546.16
2022-12-19T01:00:33.143Z,101545.91
2022-12-19T01:01:38.844Z,101554.84
2022-12-19T01:02:40.723Z,101553.81
2022-12-19T01:03:58.011Z,101557.56
2022-12-19T01:05:06.005Z,101558.28
2022-12-19T01:06:09.234Z,101562.47
2022-12-19T01:07:11.057Z,101552.34
2022-12-19T01:08:13.694Z,101552.47
2022-12-19T01:09:15.734Z,101544.91
2022-12-19T01:10:18.383Z,101547.88
2022-12-19T01:11:40.853Z,101542.53
2022-12-19T01:12:48.380Z,101539.38
2022-12-19T01:13:51.034Z,101538.66
2022-12-19T01:15:02.836Z,101543.19
2022-12-19T01:16:10.210Z,101541.81
2022-12-19T01:17:14.769Z,101531.69
2022-12-19T01:18:17.688Z,101535.81
2022-12-19T01:19:19.632Z,101532.84
2022-12-19T01:20:29.323Z,101520.13
2022-12-19T01:21:31.506Z,101512.84
2022-12-19T01:22:34.111Z,101504.00
2022-12-19T01:23:36.686Z,101485.13
2022-12-19T01:24:39.571Z,101481.34
2022-12-19T01:25:43.159Z,101498.56
2022-12-19T01:26:47.553Z,101503.00
2022-12-19T01:27:50.170Z,101512.38
2022-12-19T01:28:51.805Z,101508.38
2022-12-19T01:29:56.024Z,101510.69
2022-12-19T01:30:57.650Z,101502.75
2022-12-19T01:32:00.422Z,101491.28
2022-12-19T01:33:02.137Z,101499.34
2022-12-19T01:34:04.945Z,101489.91
2022-12-19T01:35:09.204Z,101491.53
2022-12-19T01:36:24.411Z,101490.91
2022-12-19T01:37:26.079Z,101494.97
2022-12-19T01:38:28.624Z,101494.63
2022-12-19T01:39:30.415Z,101491.88
2022-12-19T01:40:35.885Z,101486.88
2022-12-19T01:41:37.780Z,101494.84
2022-12-19T01:42:40.779Z,101489.16
2022-12-19T01:43:57.036Z,101478.25
2022-12-19T01:45:20.948Z,101475.44
2022-12-19T01:46:28.440Z,101475.13
2022-12-19T01:47:32.866Z,101474.19
2022-12-19T01:48:39.594Z,101470.44
2022-12-19T01:49:41.393Z,101465.75
2022-12-19T01:51:00.668Z,101475.19
2022-12-19T01:52:10.312Z,101471.19
2022-12-19T01:53:15.958Z,101466.03
2022-12-19T01:54:23.526Z,101456.81
2022-12-19T01:55:25.682Z,101451.38
2022-12-19T01:56:32.700Z,101456.41
2022-12-19T01:57:34.881Z,101453.25
2022-12-19T01:58:46.394Z,101446.34
2022-12-19T01:59:51.583Z,101454.28
2022-12-19T02:00:55.873Z,101453.66
2022-12-19T02:02:03.219Z,101453.66
2022-12-19T02:03:12.418Z,101452.16
2022-12-19T02:04:15.059Z,101444.84
2022-12-19T02:05:17.721Z,101454.00
2022-12-19T02:06:19.858Z,101449.00
2022-12-19T02:07:24.639Z,101448.09
2022-12-19T02:08:27.605Z,101449.75
2022-12-19T02:09:32.421Z,101440.09
2022-12-19T02:10:34.354Z,101452.38
2022-12-19T02:11:37.124Z,101435.22
2022-12-19T02:12:43.105Z,101435.31
2022-12-19T02:13:48.015Z,101444.00
2022-12-19T02:14:49.924Z,101434.13
2022-12-19T02:16:02.004Z,101433.66
2022-12-19T02:17:11.500Z,101435.31
2022-12-19T02:18:22.447Z,101432.91
2022-12-19T02:19:48.363Z,101432.47
2022-12-19T02:21:14.376Z,101418.94
2022-12-19T02:22:26.826Z,101428.06
2022-12-19T02:23:59.536Z,101420.78
2022-12-19T02:25:33.770Z,101424.31
2022-12-19T02:26:52.479Z,101421.06
2022-12-19T02:28:14.566Z,101418.13
2022-12-19T02:29:34.448Z,101420.63
2022-12-19T02:30:46.478Z,101415.44
2022-12-19T02:31:52.377Z,101416.19
2022-12-19T02:33:02.862Z,101419.31
2022-12-19T02:34:14.303Z,101410.00
2022-12-19T02:35:25.539Z,101420.16
2022-12-19T02:36:33.995Z,101405.00
2022-12-19T02:37:49.628Z,101407.94
2022-12-19T02:38:59.231Z,101396.06
2022-12-19T02:40:06.486Z,101399.53
2022-12-19T02:41:13.988Z,101398.50
2022-12-19T02:42:28.428Z,101410.84
2022-12-19T02:43:40.361Z,101407.50
2022-12-19T02:44:46.111Z,101409.03
2022-12-19T02:45:52.198Z,101418.97
2022-12-19T02:46:54.536Z,101418.41
2022-12-19T02:47:58.024Z,101420.91
2022-12-19T02:49:01.398Z,101414.13
2022-12-19T02:50:05.177Z,101416.91
2022-12-19T02:51:06.818Z,101414.78
2022-12-19T02:52:11.059Z,101412.94
2022-12-19T02:53:15.025Z,101419.78
2022-12-19T02:54:17.999Z,101416.28
2022-12-19T02:55:23.776Z,101409.88
2022-12-19T02:56:41.188Z,101415.50
2022-12-19T02:57:59.636Z,101410.44
2022-12-19T02:59:21.621Z,101408.75
2022-12-19T03:00:25.560Z,101405.91
2022-12-19T03:01:42.321Z,101397.75
2022-12-19T03:03:00.337Z,101397.13
2022-12-19T03:04:17.185Z,101392.66
2022-12-19T03:05:26.460Z,101401.09
2022-12-19T03:06:36.631Z,101397.38
2022-12-19T03:07:46.245Z,101389.44
2022-12-19T03:08:56.506Z,101388.31
2022-12-19T03:10:07.853Z,101401.66
2022-12-19T03:11:13.342Z,101393.16
2022-12-19T03:12:26.731Z,101395.16
2022-12-19T03:13:33.183Z,101394.22
2022-12-19T03:14:38.970Z,101391.03
2022-12-19T03:15:42.833Z,101394.03
2022-12-19T03:16:45.964Z,101392.06
2022-12-19T03:17:49.512Z,101385.31
2022-12-19T03:18:51.753Z,101388.06
2022-12-19T03:19:54.364Z,101390.91
2022-12-19T03:21:04.967Z,101388.03
2022-12-19T03:22:10.716Z,101390.63
2022-12-19T03:23:13.478Z,101393.06
2022-12-19T03:24:18.520Z,101397.16
2022-12-19T03:25:22.474Z,101406.47
2022-12-19T03:26:29.636Z,101409.16
2022-12-19T03:27:36.334Z,101393.53
2022-12-19T03:28:44.223Z,101402.94
2022-12-19T03:29:52.171Z,101394.06
2022-12-19T03:30:56.267Z,101394.91
2022-12-19T03:32:03.152Z,101395.09
2022-12-19T03:33:06.049Z,101391.13
2022-12-19T03:34:12.348Z,101397.47
2022-12-19T03:35:19.552Z,101393.00
2022-12-19T03:36:26.046Z,101391.44
2022-12-19T03:37:32.801Z,101386.13
2022-12-19T03:38:35.720Z,101389.16
2022-12-19T03:39:41.741Z,101390.34
2022-12-19T03:40:46.011Z,101385.81
2022-12-19T03:42:07.904Z,101388.66
2022-12-19T03:43:14.531Z,101385.03
2022-12-19T03:44:19.218Z,101388.22
2022-12-19T03:45:30.702Z,101384.16
2022-12-19T03:46:35.512Z,101383.13
2022-12-19T03:47:42.943Z,101390.03
2022-12-19T03:48:46.374Z,101393.25
2022-12-19T03:49:49.797Z,101393.94
2022-12-19T03:50:58.004Z,101395.41
2022-12-19T03:52:06.215Z,101391.25
2022-12-19T03:53:19.407Z,101393.25
2022-12-19T03:54:26.850Z,101394.66
2022-12-19T03:55:36.430Z,101393.44
2022-12-19T03:56:46.767Z,101383.66
2022-12-19T03:57:58.660Z,101386.22
2022-12-19T03:59:07.691Z,101383.38
2022-12-19T04:00:13.406Z,101380.97
2022-12-19T04:01:21.637Z,101369.47
2022-12-19T04:02:27.075Z,101378.34
2022-12-19T04:03:32.881Z,101378.47
2022-12-19T04:04:38.155Z,101375.41
2022-12-19T04:05:42.880Z,101380.28
2022-12-19T04:06:45.846Z,101374.13
2022-12-19T04:07:50.270Z,101375.78
2022-12-19T04:08:52.223Z,101379.47
2022-12-19T04:10:00.555Z,101381.28
2022-12-19T04:11:09.797Z,101375.41
2022-12-19T04:12:16.917Z,101364.53
2022-12-19T04:13:27.760Z,101364.66
2022-12-19T04:14:32.403Z,101369.19
2022-12-19T04:15:58.501Z,101367.47
2022-12-19T04:17:08.711Z,101372.22
2022-12-19T04:18:14.681Z,101363.19
2022-12-19T04:19:21.504Z,101359.31
2022-12-19T04:20:28.034Z,101366.78
2022-12-19T04:21:33.858Z,101361.41
2022-12-19T04:22:40.975Z,101356.63
2022-12-19T04:23:47.853Z,101360.41
2022-12-19T04:24:58.399Z,101357.72
2022-12-19T04:26:03.780Z,101360.84
2022-12-19T04:27:09.481Z,101355.09
2022-12-19T04:28:17.480Z,101360.09
2022-12-19T04:29:22.527Z,101366.31
2022-12-19T04:30:24.403Z,101369.59
2022-12-19T04:31:27.265Z,101372.28
2022-12-19T04:32:34.718Z,101361.97
2022-12-19T04:33:37.436Z,101377.31
2022-12-19T04:34:43.632Z,101368.78
2022-12-19T04:35:52.243Z,101363.81
2022-12-19T04:36:54.958Z,101367.75
2022-12-19T04:37:59.174Z,101362.94
2022-12-19T04:39:01.984Z,101363.81
2022-12-19T04:40:04.351Z,101349.50
2022-12-19T04:41:07.344Z,101353.88
2022-12-19T04:42:09.007Z,101361.34
2022-12-19T04:43:11.774Z,101364.19
2022-12-19T04:44:13.456Z,101358.56
2022-12-19T04:45:17.192Z,101366.94
2022-12-19T04:46:19.041Z,101360.56
2022-12-19T04:47:21.710Z,101362.84
2022-12-19T04:48:23.407Z,101362.81
2022-12-19T04:49:26.229Z,101365.13
2022-12-19T04:50:29.351Z,101355.00
2022-12-19T04:51:35.522Z,101362.88
2022-12-19T04:52:37.239Z,101363.78
2022-12-19T04:53:42.766Z,101351.41
2022-12-19T04:54:46.703Z,101358.03
2022-12-19T04:55:49.643Z,101352.28
2022-12-19T04:56:52.729Z,101355.13
2022-12-19T04:57:55.483Z,101355.63
2022-12-19T04:58:57.959Z,101358.22
2022-12-19T05:00:00.662Z,101352.03
2022-12-19T05:01:03.077Z,101352.47
2022-12-19T05:02:08.754Z,101355.47
2022-12-19T05:03:10.619Z,101351.75
2022-12-19T05:04:13.388Z,101356.31
2022-12-19T05:05:15.482Z,101350.44
2022-12-19T05:06:20.414Z,101340.94
2022-12-19T05:07:22.047Z,101347.59
2022-12-19T05:08:24.720Z,101341.19
2022-12-19T05:09:26.489Z,101332.53
2022-12-19T05:10:29.086Z,101333.16
2022-12-19T05:11:31.011Z,101331.53
2022-12-19T05:12:33.835Z,101326.34
2022-12-19T05:13:35.922Z,101342.31
2022-12-19T05:14:40.987Z,101332.38
2022-12-19T05:15:42.652Z,101331.56
2022-12-19T05:16:45.624Z,101332.63
2022-12-19T05:17:47.279Z,101327.84
2022-12-19T05:18:49.962Z,101325.91
2022-12-19T05:19:51.666Z,101331.28
2022-12-19T05:20:54.611Z,101328.94
2022-12-19T05:21:58.783Z,101323.72
2022-12-19T05:23:05.022Z,101333.25
2022-12-19T05:24:08.704Z,101328.50
2022-12-19T05:25:11.353Z,101338.38
2022-12-19T05:26:13.316Z,101337.34
2022-12-19T05:27:15.986Z,101343.81
2022-12-19T05:28:18.317Z,101338.53
2022-12-19T05:29:21.175Z,101336.44
2022-12-19T05:30:24.428Z,101338.06
2022-12-19T05:31:27.087Z,101337.72
2022-12-19T05:32:30.389Z,101339.63
2022-12-19T05:33:33.119Z,101337.97
2022-12-19T05:34:34.900Z,101335.56
2022-12-19T05:35:38.250Z,101345.97
2022-12-19T05:36:40.108Z,101342.69
2022-12-19T05:37:44.304Z,101345.63
2022-12-19T05:38:46.088Z,101347.66
2022-12-19T05:39:48.809Z,101338.97
2022-12-19T05:40:50.438Z,101341.47
2022-12-19T05:41:53.123Z,101341.22
2022-12-19T05:42:54.769Z,101347.84
2022-12-19T05:43:57.763Z,101341.06
2022-12-19T05:44:59.436Z,101341.50
2022-12-19T05:46:02.138Z,101338.53
2022-12-19T05:47:03.976Z,101337.28
2022-12-19T05:48:07.258Z,101328.03
2022-12-19T05:49:13.095Z,101331.41
2022-12-19T05:50:16.308Z,101329.38
2022-12-19T05:51:18.124Z,101343.38
2022-12-19T05:52:20.900Z,101334.94
2022-12-19T05:53:26.082Z,101335.09
2022-12-19T05:54:29.167Z,101325.19
2022-12-19T05:55:31.673Z,101328.31
2022-12-19T05:56:34.313Z,101333.06
2022-12-19T05:57:36.521Z,101326.50
2022-12-19T05:58:41.226Z,101330.66
2022-12-19T05:59:43.070Z,101324.69
2022-12-19T06:00:45.856Z,101329.44
2022-12-19T06:01:47.599Z,101326.34
2022-12-19T06:03:01.932Z,101330.31
2022-12-19T06:04:04.282Z,101329.69
2022-12-19T06:05:07.652Z,101326.28
2022-12-19T06:06:11.723Z,101322.16
2022-12-19T06:07:19.216Z,101318.63
2022-12-19T06:08:23.893Z,101321.03
2022-12-19T06:09:27.000Z,101336.50
2022-12-19T06:10:28.841Z,101335.13
2022-12-19T06:11:31.508Z,101332.09
2022-12-19T06:12:33.273Z,101335.94
2022-12-19T06:13:37.091Z,101333.88
2022-12-19T06:14:38.879Z,101338.47
2022-12-19T06:15:42.177Z,101340.94
2022-12-19T06:16:44.110Z,101344.28
2022-12-19T06:17:46.901Z,101340.78
2022-12-19T06:18:48.842Z,101339.41
2022-12-19T06:19:51.672Z,101332.97
2022-12-19T06:20:58.317Z,101332.66
2022-12-19T06:22:01.140Z,101334.78
2022-12-19T06:23:02.844Z,101334.50
2022-12-19T06:24:08.010Z,101327.97
2022-12-19T06:25:10.052Z,101328.22
2022-12-19T06:26:19.019Z,101326.59
2022-12-19T06:27:20.962Z,101331.06
2022-12-19T06:28:23.648Z,101334.84
2022-12-19T06:29:25.474Z,101321.41
2022-12-19T06:30:30.664Z,101319.13
2022-12-19T06:31:33.408Z,101326.31
2022-12-19T06:32:38.188Z,101325.41
2022-12-19T06:33:41.850Z,101319.84
2022-12-19T06:36:09.593Z,101324.59
2022-12-19T06:37:12.116Z,101323.19
2022-12-19T06:38:14.894Z,101328.72
2022-12-19T06:39:19.009Z,101324.28
2022-12-19T06:40:35.718Z,101328.66
2022-12-19T06:42:07.409Z,101321.94
2022-12-19T06:43:12.100Z,101315.94
2022-12-19T06:44:17.179Z,101320.53
2022-12-19T06:45:18.804Z,101324.53
2022-12-19T06:46:24.537Z,101321.22
2022-12-19T06:47:26.285Z,101307.06
2022-12-19T06:48:29.383Z,101307.66
2022-12-19T06:49:31.253Z,101308.66
2022-12-19T06:50:35.961Z,101313.50
2022-12-19T06:51:41.652Z,101315.00
2022-12-19T06:52:43.451Z,101319.25
2022-12-19T06:53:46.244Z,101316.19
2022-12-19T06:54:50.343Z,101320.94
2022-12-19T06:55:55.694Z,101305.25
2022-12-19T06:56:58.492Z,101314.38
2022-12-19T06:58:02.456Z,101318.34
2022-12-19T06:59:05.314Z,101322.16
2022-12-19T07:00:09.994Z,101321.22
2022-12-19T07:01:19.076Z,101326.78
2022-12-19T07:02:28.470Z,101318.75
2022-12-19T07:03:37.255Z,101322.56
2022-12-19T07:04:42.227Z,101314.19
2022-12-19T07:05:45.245Z,101314.06
2022-12-19T07:06:49.360Z,101311.72
2022-12-19T07:07:52.134Z,101315.91
2022-12-19T07:08:54.015Z,101308.03
2022-12-19T07:09:58.125Z,101314.00
2022-12-19T07:11:01.260Z,101324.28
2022-12-19T07:12:04.656Z,101319.59
2022-12-19T07:13:06.272Z,101328.19
2022-12-19T07:14:08.990Z,101322.22
2022-12-19T07:15:19.529Z,101323.72
2022-12-19T07:16:21.203Z,101323.72
2022-12-19T07:17:25.684Z,101327.03
2022-12-19T07:18:30.343Z,101321.03
2022-12-19T07:19:33.983Z,101331.78
2022-12-19T07:20:43.350Z,101338.53
2022-12-19T07:21:50.992Z,101329.28
2022-12-19T07:22:53.921Z,101330.75
2022-12-19T07:23:56.721Z,101332.81
2022-12-19T07:25:01.237Z,101332.03
2022-12-19T07:26:04.830Z,101319.97
2022-12-19T07:27:09.068Z,101322.03
2022-12-19T07:28:11.940Z,101331.97
2022-12-19T07:29:15.937Z,101328.84
2022-12-19T07:30:18.638Z,101332.66
2022-12-19T07:31:20.315Z,101331.41
2022-12-19T07:32:23.300Z,101326.53
2022-12-19T07:33:25.074Z,101323.75
2022-12-19T07:34:27.754Z,101333.06
2022-12-19T07:35:30.879Z,101326.28
2022-12-19T07:36:33.581Z,101319.69
2022-12-19T07:37:36.889Z,101333.00
2022-12-19T07:38:39.502Z,101329.75
2022-12-19T07:39:42.322Z,101323.44
2022-12-19T07:40:46.621Z,101325.13
2022-12-19T07:41:48.310Z,101322.47
2022-12-19T07:42:51.071Z,101323.50
2022-12-19T07:43:53.934Z,101323.91
2022-12-19T07:44:55.649Z,101325.47
2022-12-19T07:45:58.369Z,101319.41
2022-12-19T07:47:01.325Z,101319.97
2022-12-19T07:48:04.201Z,101319.53
2022-12-19T07:49:07.180Z,101320.22
2022-12-19T07:50:09.729Z,101319.09
2022-12-19T07:51:12.639Z,101318.22
2022-12-19T07:52:15.574Z,101311.47
2022-12-19T07:53:17.338Z,101306.19
2022-12-19T07:54:21.446Z,101318.00
2022-12-19T07:55:23.156Z,101315.03
2022-12-19T07:56:27.621Z,101306.59
2022-12-19T07:57:29.427Z,101309.47
2022-12-19T07:58:32.168Z,101305.78
2022-12-19T07:59:38.797Z,101311.84
2022-12-19T08:00:42.259Z,101305.34
2022-12-19T08:01:44.535Z,101309.94
2022-12-19T08:02:48.088Z,101307.44
2022-12-19T08:03:51.191Z,101309.34
2022-12-19T08:04:54.119Z,101306.91
2022-12-19T08:06:00.419Z,101306.25
2022-12-19T08:07:03.480Z,101303.31
2022-12-19T08:08:05.472Z,101315.84
2022-12-19T08:09:08.146Z,101307.41
2022-12-19T08:10:12.646Z,101308.34
2022-12-19T08:11:17.280Z,101308.03
2022-12-19T08:12:21.245Z,101312.03
2022-12-19T08:13:22.991Z,101308.47
2022-12-19T08:14:25.690Z,101308.41
2022-12-19T08:15:28.296Z,101312.16
2022-12-19T08:16:31.147Z,101311.19
2022-12-19T08:17:33.798Z,101301.66
2022-12-19T08:18:36.485Z,101300.56
2022-12-19T08:19:38.178Z,101305.03
2022-12-19T08:20:40.840Z,101307.28
2022-12-19T08:21:43.469Z,101304.06
2022-12-19T08:22:46.397Z,101306.59
2022-12-19T08:23:48.037Z,101307.44
2022-12-19T08:24:50.722Z,101303.34
2022-12-19T08:26:00.277Z,101309.66
2022-12-19T08:27:03.036Z,101304.53
2022-12-19T08:28:07.367Z,101300.72
2022-12-19T08:29:09.313Z,101309.63
2022-12-19T08:30:14.091Z,101307.84
2022-12-19T08:31:18.767Z,101308.72
2022-12-19T08:32:22.006Z,101305.03
2022-12-19T08:33:24.717Z,101318.78
2022-12-19T08:34:27.027Z,101306.50
2022-12-19T08:35:29.778Z,101307.31
2022-12-19T08:36:32.805Z,101314.94
2022-12-19T08:37:35.447Z,101304.38
2022-12-19T08:38:37.344Z,101300.88
2022-12-19T08:39:41.110Z,101313.63
2022-12-19T08:40:47.374Z,101315.59
2022-12-19T08:41:49.289Z,101312.41
2022-12-19T08:42:51.963Z,101315.91
2022-12-19T08:43:54.969Z,101309.97
2022-12-19T08:44:57.728Z,101319.25
2022-12-19T08:46:00.917Z,101316.00
2022-12-19T08:47:03.775Z,101317.59
2022-12-19T08:48:07.722Z,101311.41
2022-12-19T08:49:10.334Z,101311.84
2022-12-19T08:50:14.271Z,101314.47
2022-12-19T08:51:18.307Z,101311.88
2022-12-19T08:52:21.056Z,101313.06
2022-12-19T08:53:26.443Z,101309.44
2022-12-19T08:54:29.652Z,101303.41
2022-12-19T08:55:32.319Z,101306.03
2022-12-19T08:56:33.933Z,101293.47
2022-12-19T08:57:36.622Z,101296.38
2022-12-19T08:58:39.534Z,101297.44
2022-12-19T08:59:43.490Z,101297.53
2022-12-19T09:00:52.095Z,101294.13
2022-12-19T09:01:57.562Z,101291.16
2022-12-19T09:03:00.625Z,101298.88
2022-12-19T09:05:09.259Z,101286.09
2022-12-19T09:06:01.831Z,101300.91
2022-12-19T09:06:48.647Z,101293.78
2022-12-19T09:07:51.207Z,101283.75
2022-12-19T09:08:53.838Z,101281.97
2022-12-19T09:10:03.156Z,101286.72
2022-12-19T09:11:08.174Z,101279.06
2022-12-19T09:12:10.891Z,101282.22
2022-12-19T09:13:13.465Z,101290.88
2022-12-19T09:14:20.852Z,101283.03
2022-12-19T09:15:25.724Z,101283.00
2022-12-19T09:16:28.652Z,101284.91
2022-12-19T09:17:31.249Z,101280.94
2022-12-19T09:18:34.873Z,101270.50
2022-12-19T09:19:37.414Z,101272.56
2022-12-19T09:20:39.773Z,101277.09
2022-12-19T09:21:42.333Z,101282.91
2022-12-19T09:22:44.930Z,101281.19
2022-12-19T09:23:49.722Z,101270.56
2022-12-19T09:24:52.361Z,101269.63
2022-12-19T09:25:54.046Z,101278.00
2022-12-19T09:26:56.706Z,101287.19
2022-12-19T09:28:26.816Z,101278.50
2022-12-19T09:29:22.470Z,101274.44
2022-12-19T09:30:26.566Z,101275.66
2022-12-19T09:31:30.049Z,101273.59
2022-12-19T09:32:32.691Z,101270.69
2022-12-19T09:33:42.956Z,101270.25
2022-12-19T09:34:46.028Z,101267.75
2022-12-19T09:35:50.056Z,101265.72
2022-12-19T09:36:53.877Z,101263.44
2022-12-19T09:38:00.035Z,101257.97
2022-12-19T09:39:06.232Z,101266.94
2022-12-19T09:40:16.789Z,101265.84
2022-12-19T09:41:57.062Z,101261.56
2022-12-19T09:43:12.149Z,101261.16
2022-12-19T09:44:30.703Z,101264.28
2022-12-19T09:45:41.764Z,101256.63
2022-12-19T09:46:49.382Z,101251.22
2022-12-19T09:47:57.963Z,101248.50
2022-12-19T09:49:02.954Z,101246.03
2022-12-19T09:50:22.411Z,101242.53
2022-12-19T09:51:35.311Z,101240.25
2022-12-19T09:52:41.034Z,101237.94
2022-12-19T09:53:59.489Z,101235.47
2022-12-19T09:55:05.736Z,101230.50
2022-12-19T09:56:15.828Z,101232.59
2022-12-19T09:57:24.139Z,101232.78
2022-12-19T09:58:38.640Z,101236.28
2022-12-19T09:59:49.683Z,101230.91
2022-12-19T10:01:00.185Z,101230.09
2022-12-19T10:02:15.899Z,101232.56
2022-12-19T10:03:25.213Z,101226.34
2022-12-19T10:04:30.878Z,101235.44
2022-12-19T10:07:11.441Z,101230.44
2022-12-19T10:07:22.103Z,101222.94
2022-12-19T10:08:32.625Z,101232.69
2022-12-19T10:11:08.251Z,101232.47
2022-12-19T10:12:41.396Z,101232.63
2022-12-19T10:12:51.147Z,101237.63
2022-12-19T10:14:17.446Z,101238.81
2022-12-19T10:15:27.014Z,101242.41
2022-12-19T10:17:01.739Z,101233.28
2022-12-19T10:18:22.058Z,101237.69
2022-12-19T10:19:34.759Z,101233.00
2022-12-19T10:20:42.429Z,101241.47
2022-12-19T10:22:18.114Z,101241.50
2022-12-19T10:23:36.502Z,101248.97
2022-12-19T10:25:08.103Z,101239.94
2022-12-19T10:26:19.423Z,101237.66
2022-12-19T10:27:35.162Z,101238.47
2022-12-19T10:28:53.177Z,101238.50
2022-12-19T10:30:04.178Z,101233.91
2022-12-19T10:31:21.573Z,101237.41
2022-12-19T10:32:36.616Z,101230.03
2022-12-19T10:33:45.975Z,101230.19
2022-12-19T10:34:50.753Z,101224.31
2022-12-19T10:36:02.081Z,101224.25
2022-12-19T10:37:23.108Z,101222.03
2022-12-19T10:38:38.359Z,101223.50
2022-12-19T10:39:51.967Z,101231.59
2022-12-19T10:41:07.469Z,101220.03
2022-12-19T10:42:16.857Z,101218.88
2022-12-19T10:43:33.532Z,101221.00
2022-12-19T10:44:41.149Z,101216.47
2022-12-19T10:45:47.072Z,101221.00
2022-12-19T10:46:51.526Z,101213.97
2022-12-19T10:47:59.147Z,101216.88
2022-12-19T10:49:02.340Z,101213.06
2022-12-19T10:50:09.677Z,101218.28
2022-12-19T10:51:14.564Z,101207.81
2022-12-19T10:52:53.405Z,101211.88
2022-12-19T10:53:56.997Z,101208.41
2022-12-19T10:54:59.787Z,101202.88
2022-12-19T10:56:12.416Z,101202.19
2022-12-19T10:57:25.567Z,101189.09
2022-12-19T10:58:33.297Z,101187.22
2022-12-19T10:59:35.871Z,101185.88
2022-12-19T11:00:38.601Z,101184.06
2022-12-19T11:01:41.635Z,101179.94
2022-12-19T11:02:45.611Z,101184.38
2022-12-19T11:03:52.720Z,101179.31
2022-12-19T11:04:55.763Z,101172.97
2022-12-19T11:06:02.572Z,101174.09
2022-12-19T11:07:21.617Z,101169.53
2022-12-19T11:08:27.289Z,101164.50
2022-12-19T11:09:31.947Z,101165.31
2022-12-19T11:13:57.337Z,101162.91
2022-12-19T11:15:23.513Z,101159.13
2022-12-19T11:19:01.819Z,101153.38
2022-12-19T11:19:44.229Z,101159.25
2022-12-19T11:24:38.743Z,101148.25
2022-12-19T11:26:15.794Z,101148.03
2022-12-19T11:29:19.609Z,101140.63
2022-12-19T11:29:31.263Z,101132.00
2022-12-19T11:29:38.940Z,101130.00
2022-12-19T11:29:39.898Z,101137.47
2022-12-19T11:30:35.302Z,101128.47
2022-12-19T11:30:35.458Z,101130.34
2022-12-19T11:30:43.753Z,101123.59
2022-12-19T11:32:48.661Z,101118.97
2022-12-19T11:33:54.655Z,101127.53
2022-12-19T11:35:03.012Z,101118.47
2022-12-19T11:36:07.111Z,101116.00
2022-12-19T11:37:19.180Z,101123.16
2022-12-19T11:38:33.632Z,101112.97
2022-12-19T11:39:45.520Z,101113.75
2022-12-19T11:40:51.540Z,101106.81
2022-12-19T11:42:01.706Z,101112.22
2022-12-19T11:44:37.272Z,101096.94
2022-12-19T11:45:52.603Z,101100.91
2022-12-19T11:47:00.603Z,101093.09
2022-12-19T11:48:10.487Z,101093.56
2022-12-19T11:49:26.618Z,101092.06
2022-12-19T11:50:33.113Z,101076.72
2022-12-19T11:51:40.056Z,101085.44
2022-12-19T11:53:07.766Z,101089.34
2022-12-19T11:54:18.896Z,101091.47
2022-12-19T11:55:27.015Z,101090.91
2022-12-19T11:56:30.296Z,101087.97
2022-12-19T11:57:32.257Z,101086.25
2022-12-19T11:58:36.076Z,101086.53
2022-12-19T11:59:41.169Z,101091.06
2022-12-19T12:00:51.711Z,101090.44
2022-12-19T12:02:10.231Z,101086.53
2022-12-19T12:03:38.180Z,101083.50
2022-12-19T12:05:10.709Z,101083.25
2022-12-19T12:06:17.236Z,101084.31
2022-12-19T12:07:27.582Z,101076.94
2022-12-19T12:12:21.610Z,101077.47
2022-12-19T12:14:02.040Z,101077.69
2022-12-19T12:18:47.839Z,101075.91
2022-12-19T12:20:40.163Z,101076.59
2022-12-19T12:25:07.011Z,101075.00
2022-12-19T12:28:57.232Z,101080.41
2022-12-19T12:29:03.259Z,101079.41
2022-12-19T12:31:23.085Z,101068.09
2022-12-19T12:31:23.332Z,101075.06
2022-12-19T12:31:29.544Z,101068.31
2022-12-19T12:31:40.355Z,101048.16
2022-12-19T12:31:41.757Z,101059.78
2022-12-19T12:32:02.267Z,101065.16
2022-12-19T12:32:06.517Z,101048.66
2022-12-19T12:35:05.927Z,101039.31
2022-12-19T12:35:46.560Z,101031.47
2022-12-19T12:35:51.348Z,101046.94
2022-12-19T12:38:59.810Z,101031.13
2022-12-19T12:40:22.988Z,101024.72
2022-12-19T12:41:58.643Z,101026.34
2022-12-19T12:43:13.978Z,101034.59
2022-12-19T12:44:17.205Z,101029.97
2022-12-19T12:45:32.309Z,101025.28
2022-12-19T12:46:40.864Z,101029.47
2022-12-19T12:47:47.439Z,101032.22
2022-12-19T12:48:55.445Z,101018.34
2022-12-19T12:50:02.225Z,101021.53
2022-12-19T12:51:06.934Z,101029.41
2022-12-19T12:52:17.110Z,101031.09
2022-12-19T12:53:25.643Z,101036.13
2022-12-19T12:54:37.781Z,101029.56
2022-12-19T12:55:43.041Z,101025.22
2022-12-19T12:56:48.532Z,101030.63
2022-12-19T12:57:51.990Z,101029.84
2022-12-19T12:59:21.641Z,101028.66
2022-12-19T13:00:27.665Z,101032.09